OCN5MC LDDU-EDDF
Flight info
| Callsign | OCN5MC |
|---|---|
| Flight time | 1h 44m |
| Altitude | 36000 |
| Route | AMUGO DCT UVODI DCT ZDA DCT MONFA DCT SOTOV DCT NIKWU Q163 OLASO/N0426F320 Q163 HAFUN/N0380F240 Q163 ETASA T163 SPESA SPESA5B |
| Aircraft | A320/M-SDE3FGHIRWY/LB1 |
Departure
| Time | 2026-05-04 14:10 |
|---|---|
| Airport | Dubrovnik Ruđer Bošković Airport (LDDU) |
Arrival
| Time | 2026-05-04 15:55 |
|---|---|
| Airport | Frankfurt Main Airport (EDDF) |
| Time | Latitude | Longitude | Altitude | Speed | Heading |
|---|---|---|---|---|---|
| 2026-05-04 13:42 | 42.56024 | 18.26465 | 534 ft | 0 kts | 210° |
| 2026-05-04 14:02 | 42.56037 | 18.26476 | 534 ft | 4 kts | 206° |
| 2026-05-04 14:03 | 42.56057 | 18.26489 | 534 ft | 4 kts | 215° |
| 2026-05-04 14:03 | 42.56070 | 18.26513 | 534 ft | 4 kts | 278° |
| 2026-05-04 14:03 | 42.56061 | 18.26544 | 534 ft | 4 kts | 298° |
| 2026-05-04 14:03 | 42.56058 | 18.26551 | 534 ft | 0 kts | 298° |
| 2026-05-04 14:05 | 42.56066 | 18.26530 | 534 ft | 8 kts | 298° |
| 2026-05-04 14:06 | 42.56117 | 18.26402 | 534 ft | 18 kts | 298° |
| 2026-05-04 14:06 | 42.56179 | 18.26244 | 534 ft | 20 kts | 297° |
| 2026-05-04 14:06 | 42.56244 | 18.26072 | 534 ft | 22 kts | 297° |
| 2026-05-04 14:06 | 42.56320 | 18.25879 | 534 ft | 24 kts | 298° |
| 2026-05-04 14:07 | 42.56400 | 18.25678 | 534 ft | 25 kts | 298° |
| 2026-05-04 14:07 | 42.56484 | 18.25467 | 534 ft | 26 kts | 299° |
| 2026-05-04 14:07 | 42.56572 | 18.25250 | 534 ft | 27 kts | 298° |
| 2026-05-04 14:07 | 42.56662 | 18.25024 | 534 ft | 27 kts | 298° |
| 2026-05-04 14:08 | 42.56744 | 18.24813 | 534 ft | 22 kts | 298° |
| 2026-05-04 14:08 | 42.56793 | 18.24707 | 534 ft | 0 kts | 316° |
| 2026-05-04 14:08 | 42.56829 | 18.24677 | 534 ft | 13 kts | 337° |
| 2026-05-04 14:09 | 42.56910 | 18.24881 | 533 ft | 7 kts | 118° |
| 2026-05-04 14:09 | 42.56877 | 18.24963 | 533 ft | 24 kts | 118° |
| 2026-05-04 14:10 | 42.56255 | 18.26530 | 533 ft | 151 kts | 118° |
| 2026-05-04 14:10 | 42.55711 | 18.27911 | 879 ft | 168 kts | 119° |
| 2026-05-04 14:10 | 42.55168 | 18.29315 | 1669 ft | 170 kts | 118° |
| 2026-05-04 14:10 | 42.54597 | 18.30779 | 2242 ft | 185 kts | 119° |
| 2026-05-04 14:11 | 42.53950 | 18.32401 | 2551 ft | 207 kts | 122° |
| 2026-05-04 14:11 | 42.51348 | 18.33760 | 3777 ft | 223 kts | 202° |
| 2026-05-04 14:11 | 42.50139 | 18.32461 | 4515 ft | 226 kts | 230° |
| 2026-05-04 14:12 | 42.48990 | 18.30994 | 5240 ft | 231 kts | 209° |
| 2026-05-04 14:12 | 42.47500 | 18.30170 | 5980 ft | 233 kts | 195° |
| 2026-05-04 14:12 | 42.44306 | 18.29216 | 7427 ft | 238 kts | 190° |
| 2026-05-04 14:13 | 42.42663 | 18.28777 | 8127 ft | 242 kts | 191° |
| 2026-05-04 14:13 | 42.41032 | 18.28156 | 8830 ft | 247 kts | 208° |
| 2026-05-04 14:13 | 42.39784 | 18.26591 | 9527 ft | 249 kts | 242° |
| 2026-05-04 14:13 | 42.39322 | 18.24302 | 9949 ft | 264 kts | 275° |
| 2026-05-04 14:14 | 42.39762 | 18.21822 | 10268 ft | 281 kts | 290° |
| 2026-05-04 14:14 | 42.41020 | 18.16625 | 11509 ft | 296 kts | 290° |
| 2026-05-04 14:14 | 42.41657 | 18.13959 | 12254 ft | 299 kts | 290° |
| 2026-05-04 14:15 | 42.42935 | 18.08529 | 13766 ft | 306 kts | 290° |
| 2026-05-04 14:15 | 42.44216 | 18.02997 | 15104 ft | 311 kts | 290° |
| 2026-05-04 14:16 | 42.45518 | 17.97362 | 16428 ft | 316 kts | 290° |
| 2026-05-04 14:16 | 42.46175 | 17.94506 | 16969 ft | 324 kts | 290° |
| 2026-05-04 14:17 | 42.47585 | 17.88324 | 17276 ft | 360 kts | 289° |
| 2026-05-04 14:17 | 42.48330 | 17.85048 | 17738 ft | 367 kts | 289° |
| 2026-05-04 14:17 | 42.49857 | 17.78381 | 18847 ft | 373 kts | 290° |
| 2026-05-04 14:18 | 42.50630 | 17.75010 | 19382 ft | 376 kts | 289° |
| 2026-05-04 14:18 | 42.52182 | 17.68188 | 20429 ft | 381 kts | 289° |
| 2026-05-04 14:19 | 42.53745 | 17.61329 | 21454 ft | 385 kts | 290° |
| 2026-05-04 14:19 | 42.54821 | 17.57963 | 21961 ft | 385 kts | 301° |
| 2026-05-04 14:19 | 42.56279 | 17.54981 | 22462 ft | 385 kts | 309° |
| 2026-05-04 14:19 | 42.57893 | 17.52071 | 22962 ft | 387 kts | 308° |
| 2026-05-04 14:20 | 42.59537 | 17.49104 | 23469 ft | 389 kts | 308° |
| 2026-05-04 14:20 | 42.61149 | 17.46203 | 23889 ft | 391 kts | 309° |
| 2026-05-04 14:20 | 42.62790 | 17.43249 | 24302 ft | 393 kts | 308° |
| 2026-05-04 14:21 | 42.66084 | 17.37282 | 25100 ft | 396 kts | 308° |
| 2026-05-04 14:21 | 42.67733 | 17.34279 | 25489 ft | 397 kts | 308° |
| 2026-05-04 14:21 | 42.69383 | 17.31258 | 25880 ft | 399 kts | 308° |
| 2026-05-04 14:21 | 42.71035 | 17.28228 | 26248 ft | 400 kts | 308° |
| 2026-05-04 14:22 | 42.72702 | 17.25180 | 26604 ft | 402 kts | 308° |
| 2026-05-04 14:22 | 42.74380 | 17.22116 | 26972 ft | 404 kts | 308° |
| 2026-05-04 14:22 | 42.76063 | 17.19043 | 27345 ft | 406 kts | 308° |
| 2026-05-04 14:22 | 42.77752 | 17.15953 | 27700 ft | 407 kts | 308° |
| 2026-05-04 14:23 | 42.81144 | 17.09735 | 28437 ft | 411 kts | 308° |
| 2026-05-04 14:23 | 42.82848 | 17.06604 | 28794 ft | 412 kts | 307° |
| 2026-05-04 14:23 | 42.84559 | 17.03462 | 29134 ft | 414 kts | 307° |
| 2026-05-04 14:24 | 42.86277 | 17.00305 | 29489 ft | 416 kts | 307° |
| 2026-05-04 14:24 | 42.87999 | 16.97130 | 29830 ft | 417 kts | 307° |
| 2026-05-04 14:24 | 42.89724 | 16.93942 | 30151 ft | 419 kts | 307° |
| 2026-05-04 14:24 | 42.91453 | 16.90738 | 30418 ft | 420 kts | 307° |
| 2026-05-04 14:25 | 42.93187 | 16.87526 | 30687 ft | 421 kts | 307° |
| 2026-05-04 14:25 | 42.96677 | 16.81065 | 31225 ft | 424 kts | 307° |
| 2026-05-04 14:25 | 42.98426 | 16.77817 | 31506 ft | 424 kts | 307° |
| 2026-05-04 14:26 | 43.00171 | 16.74576 | 31848 ft | 424 kts | 307° |
| 2026-05-04 14:26 | 43.01918 | 16.71331 | 32206 ft | 423 kts | 307° |
| 2026-05-04 14:26 | 43.03659 | 16.68098 | 32554 ft | 422 kts | 307° |
| 2026-05-04 14:26 | 43.05394 | 16.64866 | 32881 ft | 421 kts | 307° |
| 2026-05-04 14:27 | 43.07123 | 16.61636 | 33223 ft | 421 kts | 307° |
| 2026-05-04 14:27 | 43.08848 | 16.58408 | 33566 ft | 420 kts | 307° |
| 2026-05-04 14:27 | 43.10598 | 16.55224 | 33902 ft | 418 kts | 311° |
| 2026-05-04 14:27 | 43.12638 | 16.52395 | 34215 ft | 417 kts | 319° |
| 2026-05-04 14:28 | 43.14848 | 16.49822 | 34498 ft | 417 kts | 319° |
| 2026-05-04 14:28 | 43.17053 | 16.47249 | 34784 ft | 416 kts | 319° |
| 2026-05-04 14:28 | 43.19250 | 16.44675 | 35052 ft | 415 kts | 319° |
| 2026-05-04 14:28 | 43.21442 | 16.42095 | 35316 ft | 415 kts | 319° |
| 2026-05-04 14:29 | 43.25815 | 16.36934 | 35804 ft | 415 kts | 319° |
| 2026-05-04 14:29 | 43.30193 | 16.31778 | 36107 ft | 415 kts | 319° |
| 2026-05-04 14:30 | 43.34559 | 16.26628 | 36132 ft | 413 kts | 318° |
| 2026-05-04 14:31 | 43.41078 | 16.18888 | 36130 ft | 413 kts | 318° |
| 2026-05-04 14:32 | 43.49041 | 16.09435 | 36139 ft | 412 kts | 318° |
| 2026-05-04 14:32 | 43.54088 | 16.03423 | 36134 ft | 413 kts | 318° |
| 2026-05-04 14:33 | 43.57725 | 15.99079 | 36131 ft | 413 kts | 318° |
| 2026-05-04 14:33 | 43.62067 | 15.93878 | 36108 ft | 414 kts | 318° |
| 2026-05-04 14:34 | 43.66425 | 15.88668 | 36117 ft | 415 kts | 318° |
| 2026-05-04 14:34 | 43.70786 | 15.83447 | 36111 ft | 415 kts | 318° |
| 2026-05-04 14:35 | 43.75144 | 15.78191 | 36123 ft | 416 kts | 317° |
| 2026-05-04 14:35 | 43.79503 | 15.72929 | 36123 ft | 416 kts | 318° |
| 2026-05-04 14:36 | 43.83864 | 15.67659 | 36123 ft | 416 kts | 318° |
| 2026-05-04 14:36 | 43.88229 | 15.62386 | 36122 ft | 416 kts | 317° |
| 2026-05-04 14:37 | 43.92586 | 15.57101 | 36128 ft | 416 kts | 317° |
| 2026-05-04 14:37 | 43.96948 | 15.51807 | 36127 ft | 417 kts | 317° |
| 2026-05-04 14:38 | 44.01312 | 15.46498 | 36129 ft | 417 kts | 317° |
| 2026-05-04 14:38 | 44.05637 | 15.41205 | 36124 ft | 417 kts | 317° |
| 2026-05-04 14:39 | 44.09977 | 15.35850 | 36126 ft | 417 kts | 315° |
| 2026-05-04 14:39 | 44.14082 | 15.30149 | 36133 ft | 417 kts | 311° |
| 2026-05-04 14:40 | 44.20021 | 15.21299 | 36131 ft | 417 kts | 312° |
| 2026-05-04 14:40 | 44.24023 | 15.15432 | 36122 ft | 418 kts | 312° |
| 2026-05-04 14:41 | 44.28054 | 15.09571 | 36116 ft | 419 kts | 312° |
| 2026-05-04 14:42 | 44.36130 | 14.97818 | 36130 ft | 419 kts | 311° |
| 2026-05-04 14:42 | 44.40159 | 14.91925 | 36125 ft | 419 kts | 311° |
| 2026-05-04 14:43 | 44.44181 | 14.86015 | 36123 ft | 420 kts | 311° |
| 2026-05-04 14:43 | 44.48200 | 14.80093 | 36125 ft | 420 kts | 311° |
| 2026-05-04 14:44 | 44.52220 | 14.74164 | 36125 ft | 420 kts | 311° |
| 2026-05-04 14:44 | 44.56235 | 14.68234 | 36126 ft | 419 kts | 311° |
| 2026-05-04 14:45 | 44.60250 | 14.62293 | 36121 ft | 420 kts | 311° |
| 2026-05-04 14:45 | 44.64259 | 14.56341 | 36122 ft | 419 kts | 311° |
| 2026-05-04 14:46 | 44.68266 | 14.50379 | 36119 ft | 420 kts | 311° |
| 2026-05-04 14:46 | 44.72271 | 14.44396 | 36122 ft | 420 kts | 311° |
| 2026-05-04 14:47 | 44.76285 | 14.38399 | 36119 ft | 421 kts | 311° |
| 2026-05-04 14:47 | 44.80310 | 14.32402 | 36122 ft | 421 kts | 311° |
| 2026-05-04 14:48 | 44.84327 | 14.26386 | 36125 ft | 422 kts | 311° |
| 2026-05-04 14:48 | 44.88337 | 14.20350 | 36129 ft | 422 kts | 310° |
| 2026-05-04 14:49 | 44.92341 | 14.14305 | 36130 ft | 422 kts | 311° |
| 2026-05-04 14:49 | 44.96360 | 14.08242 | 36123 ft | 423 kts | 311° |
| 2026-05-04 14:50 | 45.00384 | 14.02161 | 36120 ft | 424 kts | 310° |
| 2026-05-04 14:50 | 45.04407 | 13.96067 | 36120 ft | 424 kts | 310° |
| 2026-05-04 14:51 | 45.08422 | 13.89960 | 36115 ft | 424 kts | 310° |
| 2026-05-04 14:51 | 45.12438 | 13.83839 | 36119 ft | 424 kts | 310° |
| 2026-05-04 14:52 | 45.16448 | 13.77707 | 36105 ft | 425 kts | 310° |
| 2026-05-04 14:52 | 45.20464 | 13.71566 | 36097 ft | 425 kts | 310° |
| 2026-05-04 14:53 | 45.24482 | 13.65411 | 36089 ft | 425 kts | 310° |
| 2026-05-04 14:53 | 45.28498 | 13.59247 | 36093 ft | 425 kts | 310° |
| 2026-05-04 14:54 | 45.32484 | 13.53109 | 36087 ft | 425 kts | 310° |
| 2026-05-04 14:54 | 45.36490 | 13.46920 | 36086 ft | 425 kts | 310° |
| 2026-05-04 14:55 | 45.40489 | 13.40729 | 36085 ft | 425 kts | 310° |
| 2026-05-04 14:55 | 45.44494 | 13.34523 | 36081 ft | 426 kts | 310° |
| 2026-05-04 14:56 | 45.48493 | 13.28302 | 36082 ft | 426 kts | 310° |
| 2026-05-04 14:56 | 45.52653 | 13.22270 | 36079 ft | 427 kts | 314° |
| 2026-05-04 14:57 | 45.57002 | 13.16476 | 36073 ft | 428 kts | 314° |
| 2026-05-04 14:57 | 45.61348 | 13.10671 | 36079 ft | 428 kts | 314° |
| 2026-05-04 14:58 | 45.65637 | 13.04787 | 36068 ft | 427 kts | 313° |
| 2026-05-04 14:58 | 45.69909 | 12.98869 | 36064 ft | 428 kts | 313° |
| 2026-05-04 14:59 | 45.74182 | 12.92938 | 36062 ft | 428 kts | 313° |
| 2026-05-04 15:00 | 45.80598 | 12.84014 | 36060 ft | 429 kts | 313° |
| 2026-05-04 15:00 | 45.84884 | 12.78062 | 36058 ft | 429 kts | 313° |
| 2026-05-04 15:01 | 45.91296 | 12.69174 | 36092 ft | 429 kts | 313° |
| 2026-05-04 15:01 | 45.95576 | 12.63187 | 36077 ft | 430 kts | 313° |
| 2026-05-04 15:02 | 45.99859 | 12.57181 | 36075 ft | 430 kts | 313° |
| 2026-05-04 15:02 | 46.04129 | 12.51163 | 36075 ft | 430 kts | 313° |
| 2026-05-04 15:03 | 46.08406 | 12.45126 | 36077 ft | 431 kts | 313° |
| 2026-05-04 15:03 | 46.12686 | 12.39092 | 36079 ft | 430 kts | 313° |
| 2026-05-04 15:04 | 46.16967 | 12.33060 | 36076 ft | 430 kts | 313° |
| 2026-05-04 15:04 | 46.21245 | 12.27004 | 36070 ft | 430 kts | 312° |
| 2026-05-04 15:05 | 46.25509 | 12.20939 | 36078 ft | 430 kts | 312° |
| 2026-05-04 15:05 | 46.29763 | 12.14874 | 36069 ft | 430 kts | 312° |
| 2026-05-04 15:06 | 46.34028 | 12.08800 | 36089 ft | 430 kts | 313° |
| 2026-05-04 15:07 | 46.40421 | 11.99640 | 36071 ft | 431 kts | 312° |
| 2026-05-04 15:07 | 46.44680 | 11.93518 | 36067 ft | 432 kts | 312° |
| 2026-05-04 15:08 | 46.48944 | 11.87387 | 36071 ft | 431 kts | 312° |
| 2026-05-04 15:08 | 46.53193 | 11.81267 | 36050 ft | 431 kts | 312° |
| 2026-05-04 15:09 | 46.57445 | 11.75127 | 36046 ft | 431 kts | 312° |
| 2026-05-04 15:09 | 46.61692 | 11.68966 | 36033 ft | 431 kts | 312° |
| 2026-05-04 15:10 | 46.68053 | 11.59705 | 36028 ft | 432 kts | 312° |
| 2026-05-04 15:11 | 46.74416 | 11.50440 | 36022 ft | 431 kts | 312° |
| 2026-05-04 15:11 | 46.78656 | 11.44243 | 36043 ft | 431 kts | 311° |
| 2026-05-04 15:12 | 46.82861 | 11.38080 | 36029 ft | 431 kts | 311° |
| 2026-05-04 15:12 | 46.87079 | 11.31849 | 36035 ft | 431 kts | 311° |
| 2026-05-04 15:13 | 46.91298 | 11.25596 | 36029 ft | 432 kts | 311° |
| 2026-05-04 15:13 | 46.95876 | 11.19866 | 36008 ft | 437 kts | 325° |
| 2026-05-04 15:14 | 47.01196 | 11.15493 | 35999 ft | 439 kts | 328° |
| 2026-05-04 15:14 | 47.06536 | 11.11152 | 36009 ft | 439 kts | 328° |
| 2026-05-04 15:15 | 47.11882 | 11.06784 | 35984 ft | 440 kts | 328° |
| 2026-05-04 15:15 | 47.17240 | 11.02409 | 35989 ft | 441 kts | 328° |
| 2026-05-04 15:16 | 47.25271 | 10.95793 | 35987 ft | 441 kts | 327° |
| 2026-05-04 15:17 | 47.33299 | 10.89150 | 35980 ft | 441 kts | 328° |
| 2026-05-04 15:17 | 47.40427 | 10.83268 | 35994 ft | 441 kts | 327° |
| 2026-05-04 15:18 | 47.45768 | 10.78830 | 35988 ft | 440 kts | 327° |
| 2026-05-04 15:19 | 47.53765 | 10.72157 | 36004 ft | 441 kts | 327° |
| 2026-05-04 15:19 | 47.61773 | 10.65456 | 35987 ft | 441 kts | 327° |
| 2026-05-04 15:20 | 47.67115 | 10.60975 | 35981 ft | 441 kts | 327° |
| 2026-05-04 15:20 | 47.72450 | 10.56480 | 35981 ft | 441 kts | 327° |
| 2026-05-04 15:21 | 47.77786 | 10.51978 | 35992 ft | 442 kts | 327° |
| 2026-05-04 15:22 | 47.85809 | 10.45207 | 35978 ft | 442 kts | 327° |
| 2026-05-04 15:22 | 47.94049 | 10.39270 | 35977 ft | 445 kts | 335° |
| 2026-05-04 15:23 | 47.99801 | 10.35860 | 35980 ft | 445 kts | 335° |
| 2026-05-04 15:23 | 48.05537 | 10.32417 | 35973 ft | 445 kts | 335° |
| 2026-05-04 15:24 | 48.16782 | 10.25662 | 35983 ft | 445 kts | 335° |
| 2026-05-04 15:25 | 48.22245 | 10.21466 | 35982 ft | 439 kts | 320° |
| 2026-05-04 15:26 | 48.29169 | 10.13130 | 35972 ft | 437 kts | 317° |
| 2026-05-04 15:26 | 48.36264 | 10.04508 | 35965 ft | 437 kts | 317° |
| 2026-05-04 15:27 | 48.43361 | 9.95863 | 35967 ft | 437 kts | 317° |
| 2026-05-04 15:28 | 48.50382 | 9.87260 | 35979 ft | 438 kts | 317° |
| 2026-05-04 15:29 | 48.57479 | 9.78542 | 35966 ft | 439 kts | 317° |
| 2026-05-04 15:30 | 48.66794 | 9.66637 | 35725 ft | 440 kts | 315° |
| 2026-05-04 15:30 | 48.73842 | 9.57200 | 32938 ft | 453 kts | 314° |
| 2026-05-04 15:31 | 48.78545 | 9.50941 | 31573 ft | 449 kts | 315° |
| 2026-05-04 15:31 | 48.80881 | 9.47853 | 31034 ft | 443 kts | 315° |
| 2026-05-04 15:32 | 48.87743 | 9.38759 | 29328 ft | 429 kts | 314° |
| 2026-05-04 15:32 | 48.92387 | 9.33218 | 28313 ft | 424 kts | 326° |
| 2026-05-04 15:33 | 48.97431 | 9.29348 | 27363 ft | 414 kts | 329° |
| 2026-05-04 15:34 | 49.05075 | 9.23581 | 25960 ft | 400 kts | 330° |
| 2026-05-04 15:34 | 49.07561 | 9.21695 | 25501 ft | 397 kts | 329° |
| 2026-05-04 15:34 | 49.12476 | 9.17939 | 24566 ft | 392 kts | 330° |
| 2026-05-04 15:35 | 49.17327 | 9.14447 | 23623 ft | 390 kts | 338° |
| 2026-05-04 15:35 | 49.19972 | 9.13496 | 23083 ft | 392 kts | 350° |
| 2026-05-04 15:35 | 49.22699 | 9.13355 | 22593 ft | 393 kts | 1° |
| 2026-05-04 15:36 | 49.28120 | 9.14092 | 21616 ft | 389 kts | 3° |
| 2026-05-04 15:36 | 49.30809 | 9.14477 | 21150 ft | 388 kts | 3° |
| 2026-05-04 15:36 | 49.33494 | 9.14864 | 20684 ft | 387 kts | 2° |
| 2026-05-04 15:37 | 49.36162 | 9.15252 | 20229 ft | 385 kts | 3° |
| 2026-05-04 15:37 | 49.38824 | 9.15636 | 19762 ft | 383 kts | 3° |
| 2026-05-04 15:37 | 49.41474 | 9.16015 | 19303 ft | 382 kts | 3° |
| 2026-05-04 15:37 | 49.44100 | 9.16683 | 18865 ft | 384 kts | 13° |
| 2026-05-04 15:38 | 49.46678 | 9.17776 | 18385 ft | 385 kts | 13° |
| 2026-05-04 15:38 | 49.49269 | 9.18873 | 17882 ft | 386 kts | 14° |
| 2026-05-04 15:38 | 49.51844 | 9.19977 | 17406 ft | 383 kts | 14° |
| 2026-05-04 15:38 | 49.54406 | 9.21085 | 16857 ft | 382 kts | 14° |
| 2026-05-04 15:39 | 49.56967 | 9.22192 | 16322 ft | 383 kts | 14° |
| 2026-05-04 15:39 | 49.59535 | 9.23301 | 15798 ft | 383 kts | 14° |
| 2026-05-04 15:39 | 49.64576 | 9.25438 | 15115 ft | 371 kts | 14° |
| 2026-05-04 15:40 | 49.67061 | 9.26475 | 14657 ft | 370 kts | 14° |
| 2026-05-04 15:40 | 49.69550 | 9.27509 | 14131 ft | 371 kts | 14° |
| 2026-05-04 15:40 | 49.72043 | 9.28541 | 13600 ft | 371 kts | 14° |
| 2026-05-04 15:40 | 49.74513 | 9.29561 | 13069 ft | 360 kts | 14° |
| 2026-05-04 15:41 | 49.76860 | 9.30595 | 12742 ft | 342 kts | 15° |
| 2026-05-04 15:41 | 49.79098 | 9.31624 | 12331 ft | 331 kts | 16° |
| 2026-05-04 15:41 | 49.81298 | 9.32640 | 11966 ft | 329 kts | 15° |
| 2026-05-04 15:41 | 49.83497 | 9.33636 | 11542 ft | 329 kts | 16° |
| 2026-05-04 15:42 | 49.85697 | 9.34616 | 11133 ft | 329 kts | 16° |
| 2026-05-04 15:42 | 49.87884 | 9.35549 | 10998 ft | 325 kts | 14° |
| 2026-05-04 15:42 | 49.90078 | 9.36409 | 11014 ft | 325 kts | 13° |
| 2026-05-04 15:42 | 49.92278 | 9.37235 | 10956 ft | 326 kts | 13° |
| 2026-05-04 15:43 | 49.94495 | 9.38056 | 10551 ft | 325 kts | 13° |
| 2026-05-04 15:43 | 49.96660 | 9.38861 | 10368 ft | 317 kts | 13° |
| 2026-05-04 15:43 | 49.98799 | 9.39666 | 10002 ft | 316 kts | 13° |
| 2026-05-04 15:43 | 50.00936 | 9.40480 | 9621 ft | 316 kts | 14° |
| 2026-05-04 15:44 | 50.03065 | 9.41297 | 9229 ft | 314 kts | 14° |
| 2026-05-04 15:44 | 50.05180 | 9.42117 | 8830 ft | 312 kts | 14° |
| 2026-05-04 15:44 | 50.07255 | 9.42920 | 8444 ft | 302 kts | 14° |
| 2026-05-04 15:44 | 50.09309 | 9.43299 | 8056 ft | 296 kts | 353° |
| 2026-05-04 15:45 | 50.11315 | 9.42705 | 7687 ft | 292 kts | 345° |
| 2026-05-04 15:45 | 50.13277 | 9.41940 | 7313 ft | 290 kts | 342° |
| 2026-05-04 15:45 | 50.15078 | 9.40635 | 6950 ft | 283 kts | 321° |
| 2026-05-04 15:45 | 50.16402 | 9.38429 | 6587 ft | 278 kts | 298° |
| 2026-05-04 15:46 | 50.17082 | 9.35662 | 6218 ft | 272 kts | 277° |
| 2026-05-04 15:46 | 50.17077 | 9.32758 | 5833 ft | 267 kts | 261° |
| 2026-05-04 15:46 | 50.16826 | 9.29893 | 5448 ft | 266 kts | 261° |
| 2026-05-04 15:46 | 50.16575 | 9.27042 | 5068 ft | 265 kts | 262° |
| 2026-05-04 15:47 | 50.16324 | 9.24198 | 4695 ft | 264 kts | 262° |
| 2026-05-04 15:47 | 50.16074 | 9.21371 | 4308 ft | 263 kts | 263° |
| 2026-05-04 15:47 | 50.15825 | 9.18571 | 4029 ft | 257 kts | 263° |
| 2026-05-04 15:47 | 50.15588 | 9.15899 | 3998 ft | 240 kts | 261° |
| 2026-05-04 15:48 | 50.15363 | 9.13411 | 4007 ft | 227 kts | 262° |
| 2026-05-04 15:48 | 50.15143 | 9.10979 | 4013 ft | 227 kts | 262° |
| 2026-05-04 15:48 | 50.14707 | 9.06145 | 4023 ft | 226 kts | 261° |
| 2026-05-04 15:49 | 50.14487 | 9.03699 | 4009 ft | 224 kts | 261° |
| 2026-05-04 15:49 | 50.14107 | 9.01379 | 4011 ft | 225 kts | 250° |
| 2026-05-04 15:49 | 50.13561 | 8.99104 | 4021 ft | 224 kts | 249° |
| 2026-05-04 15:49 | 50.13016 | 8.96827 | 4037 ft | 224 kts | 250° |
| 2026-05-04 15:50 | 50.12477 | 8.94539 | 4014 ft | 226 kts | 250° |
| 2026-05-04 15:50 | 50.11941 | 8.92244 | 4000 ft | 225 kts | 250° |
| 2026-05-04 15:50 | 50.11402 | 8.89951 | 4034 ft | 226 kts | 250° |
| 2026-05-04 15:50 | 50.10861 | 8.87643 | 4030 ft | 227 kts | 250° |
| 2026-05-04 15:51 | 50.10316 | 8.85324 | 3878 ft | 227 kts | 250° |
| 2026-05-04 15:51 | 50.09776 | 8.83032 | 3606 ft | 225 kts | 250° |
| 2026-05-04 15:51 | 50.09238 | 8.80753 | 3325 ft | 225 kts | 251° |
| 2026-05-04 15:51 | 50.08697 | 8.78458 | 3027 ft | 225 kts | 251° |
| 2026-05-04 15:52 | 50.08156 | 8.76170 | 2730 ft | 225 kts | 252° |
| 2026-05-04 15:52 | 50.07627 | 8.73930 | 2417 ft | 214 kts | 251° |
| 2026-05-04 15:52 | 50.07125 | 8.71811 | 2151 ft | 201 kts | 251° |
| 2026-05-04 15:52 | 50.06662 | 8.69859 | 1878 ft | 185 kts | 251° |
| 2026-05-04 15:53 | 50.06234 | 8.68053 | 1640 ft | 171 kts | 250° |
| 2026-05-04 15:53 | 50.05838 | 8.66380 | 1437 ft | 157 kts | 251° |
| 2026-05-04 15:53 | 50.05480 | 8.64872 | 1229 ft | 142 kts | 250° |
| 2026-05-04 15:53 | 50.05147 | 8.63467 | 1035 ft | 135 kts | 249° |
| 2026-05-04 15:54 | 50.04820 | 8.62110 | 911 ft | 135 kts | 249° |
| 2026-05-04 15:54 | 50.04503 | 8.60750 | 712 ft | 134 kts | 250° |
| 2026-05-04 15:54 | 50.04179 | 8.59393 | 525 ft | 133 kts | 249° |
| 2026-05-04 15:54 | 50.03857 | 8.58050 | 374 ft | 131 kts | 249° |
| 2026-05-04 15:55 | 50.03607 | 8.56999 | 351 ft | 63 kts | 250° |
| 2026-05-04 15:55 | 50.03492 | 8.56509 | 360 ft | 38 kts | 250° |
| 2026-05-04 15:55 | 50.03434 | 8.56234 | 359 ft | 22 kts | 259° |
| 2026-05-04 15:55 | 50.03440 | 8.56001 | 354 ft | 22 kts | 280° |
| 2026-05-04 15:56 | 50.03464 | 8.55809 | 352 ft | 17 kts | 281° |
| 2026-05-04 15:56 | 50.03487 | 8.55618 | 345 ft | 18 kts | 281° |
| 2026-05-04 15:56 | 50.03479 | 8.55420 | 345 ft | 20 kts | 254° |
| 2026-05-04 15:56 | 50.03428 | 8.55206 | 349 ft | 22 kts | 249° |
| 2026-05-04 15:57 | 50.03371 | 8.54968 | 347 ft | 25 kts | 250° |
| 2026-05-04 15:57 | 50.03310 | 8.54708 | 337 ft | 24 kts | 249° |
| 2026-05-04 15:57 | 50.03280 | 8.54518 | 336 ft | 16 kts | 292° |
| 2026-05-04 15:57 | 50.03366 | 8.54448 | 339 ft | 10 kts | 340° |
| 2026-05-04 15:58 | 50.03386 | 8.54437 | 340 ft | 0 kts | 341° |
| 2026-05-04 15:59 | 50.03394 | 8.54433 | 337 ft | 6 kts | 341° |
| 2026-05-04 16:00 | 50.03437 | 8.54410 | 354 ft | 11 kts | 341° |
| 2026-05-04 16:00 | 50.03517 | 8.54366 | 347 ft | 13 kts | 339° |
| 2026-05-04 16:00 | 50.03598 | 8.54319 | 350 ft | 0 kts | 339° |
| 2026-05-04 16:01 | 50.03605 | 8.54315 | 341 ft | 4 kts | 339° |
| 2026-05-04 16:01 | 50.03658 | 8.54326 | 348 ft | 12 kts | 41° |
| 2026-05-04 16:01 | 50.03693 | 8.54447 | 342 ft | 13 kts | 69° |
| 2026-05-04 16:02 | 50.03728 | 8.54592 | 349 ft | 17 kts | 69° |
| 2026-05-04 16:02 | 50.03774 | 8.54794 | 347 ft | 21 kts | 70° |
| 2026-05-04 16:02 | 50.03890 | 8.55276 | 352 ft | 25 kts | 69° |
| 2026-05-04 16:03 | 50.03951 | 8.55535 | 351 ft | 26 kts | 70° |
| 2026-05-04 16:03 | 50.04015 | 8.55803 | 355 ft | 26 kts | 70° |
| 2026-05-04 16:03 | 50.04078 | 8.56075 | 357 ft | 27 kts | 70° |
| 2026-05-04 16:03 | 50.04142 | 8.56340 | 361 ft | 26 kts | 70° |
| 2026-05-04 16:04 | 50.04205 | 8.56602 | 362 ft | 26 kts | 69° |
| 2026-05-04 16:04 | 50.04381 | 8.56830 | 361 ft | 18 kts | 11° |
| 2026-05-04 16:04 | 50.04469 | 8.56901 | 362 ft | 8 kts | 76° |
| 2026-05-04 16:05 | 50.04425 | 8.56944 | 364 ft | 7 kts | 161° |
| 2026-05-04 16:05 | 50.04383 | 8.56969 | 360 ft | 6 kts | 159° |
| 2026-05-04 16:05 | 50.04377 | 8.56972 | 360 ft | 0 kts | 160° |